Time;durP1;ratioP1;P1;durP2;ratioP2;P2;SDS_P1;SDS_P2;PMS_P1;PMS_P2;Temp;Humidity;BMP_temperature;BMP_pressure;BME280_temperature;BME280_humidity;BME280_pressure;Samples;Min_cycle;Max_cycle;Signal;HPM_P1;HPM_P2
2023/12/24 00:01:14;;;;;;;45.75;16.33;;;9.40;99.90;;;;;;4988292;28;20035;-82
2023/12/24 00:03:41;;;;;;;39.92;15.13;;;9.30;99.90;;;;;;4989932;28;20031;-83
2023/12/24 00:06:08;;;;;;;43.47;15.52;;;9.30;99.90;;;;;;4969283;28;20054;-81
2023/12/24 00:08:35;;;;;;;35.95;15.05;;;9.30;99.90;;;;;;4974203;28;20033;-81
2023/12/24 00:11:02;;;;;;;31.08;13.80;;;9.20;99.90;;;;;;4965335;28;20070;-81
2023/12/24 00:13:28;;;;;;;45.05;14.57;;;9.10;99.90;;;;;;4963529;28;20031;-80
2023/12/24 00:15:58;;;;;;;33.15;13.77;;;9.10;99.90;;;;;;4957970;28;20432;-82
2023/12/24 00:18:24;;;;;;;39.13;13.65;;;9.00;99.90;;;;;;4979045;28;20026;-81
2023/12/24 00:20:51;;;;;;;36.17;13.95;;;9.00;99.90;;;;;;4958223;28;20035;-82
2023/12/24 00:23:17;;;;;;;39.33;13.90;;;9.00;99.90;;;;;;4974058;28;20097;-81
2023/12/24 00:25:43;;;;;;;36.80;13.43;;;8.90;99.90;;;;;;4972672;28;20029;-83
2023/12/24 00:28:10;;;;;;;31.27;15.45;;;8.90;99.90;;;;;;4958994;28;20045;-81
2023/12/24 00:30:36;;;;;;;55.40;19.60;;;8.90;99.90;;;;;;4976428;28;20033;-81
2023/12/24 00:33:03;;;;;;;46.20;18.25;;;8.80;99.90;;;;;;4957049;28;20035;-82
2023/12/24 00:35:34;;;;;;;46.00;15.80;;;8.80;99.90;;;;;;4960141;28;20392;-82
2023/12/24 00:38:00;;;;;;;37.38;14.77;;;8.80;99.90;;;;;;4959827;28;20031;-80
2023/12/24 00:40:27;;;;;;;41.08;14.30;;;8.80;99.90;;;;;;4961637;28;20027;-81
2023/12/24 00:42:53;;;;;;;40.08;14.10;;;8.80;99.90;;;;;;4954972;28;20031;-81
2023/12/24 00:45:23;;;;;;;37.58;14.30;;;8.70;99.90;;;;;;4957121;28;20117;-82
2023/12/24 00:47:50;;;;;;;35.80;15.43;;;8.70;99.90;;;;;;4954908;28;20137;-80
2023/12/24 00:50:17;;;;;;;37.38;16.60;;;8.70;99.90;;;;;;4978330;28;20134;-81
2023/12/24 00:52:43;;;;;;;52.97;16.50;;;8.70;99.90;;;;;;4956800;28;20117;-80
2023/12/24 00:55:10;;;;;;;44.72;15.88;;;8.70;99.90;;;;;;4973511;28;20019;-81
2023/12/24 00:57:37;;;;;;;39.85;14.77;;;8.80;99.90;;;;;;4958419;28;20038;-81
2023/12/24 01:00:06;;;;;;;31.45;13.13;;;8.70;99.90;;;;;;4975891;28;20098;-81
2023/12/24 01:02:37;;;;;;;34.47;13.48;;;8.60;99.90;;;;;;4956484;28;20031;-81
2023/12/24 01:05:04;;;;;;;38.33;12.73;;;8.60;99.90;;;;;;4978665;28;20073;-81
2023/12/24 01:07:30;;;;;;;29.63;12.73;;;8.50;99.90;;;;;;4990099;28;20142;-81
2023/12/24 01:09:57;;;;;;;37.42;13.00;;;8.40;99.90;;;;;;5004669;28;20021;-81
2023/12/24 01:12:23;;;;;;;28.88;12.70;;;8.40;99.90;;;;;;4999547;28;20443;-81
2023/12/24 01:14:50;;;;;;;26.35;11.70;;;8.40;99.90;;;;;;4982736;28;20492;-80
2023/12/24 01:17:20;;;;;;;38.80;12.38;;;8.40;99.90;;;;;;4972872;28;20049;-81
2023/12/24 01:19:46;;;;;;;28.25;12.52;;;8.40;99.90;;;;;;4996999;28;20121;-81
2023/12/24 01:22:12;;;;;;;34.70;12.88;;;8.40;99.90;;;;;;4980616;28;20037;-81
2023/12/24 01:24:39;;;;;;;23.85;11.75;;;8.40;99.90;;;;;;5005586;28;20444;-81
2023/12/24 01:27:06;;;;;;;43.03;12.77;;;8.30;99.90;;;;;;5004955;28;20029;-80
2023/12/24 01:29:32;;;;;;;29.65;12.00;;;8.50;99.90;;;;;;4983166;28;20476;-81
2023/12/24 01:32:01;;;;;;;28.30;12.25;;;8.60;99.90;;;;;;4986422;28;20077;-80
2023/12/24 01:34:31;;;;;;;22.38;11.13;;;8.40;99.90;;;;;;4991814;28;20479;-80
2023/12/24 01:36:57;;;;;;;38.53;13.00;;;8.40;99.90;;;;;;4991537;28;20050;-80
2023/12/24 01:39:25;;;;;;;27.80;11.00;;;8.40;99.90;;;;;;5005159;28;20101;-81
2023/12/24 01:41:52;;;;;;;33.47;11.32;;;8.30;99.90;;;;;;4982149;28;20027;-80
2023/12/24 01:44:21;;;;;;;27.95;11.02;;;8.20;99.90;;;;;;4979411;28;20393;-80
2023/12/24 01:46:48;;;;;;;27.85;11.25;;;8.20;99.90;;;;;;4980399;28;20027;-81
2023/12/24 01:49:15;;;;;;;24.80;11.05;;;8.20;99.90;;;;;;5005852;28;20433;-80
2023/12/24 01:51:42;;;;;;;30.02;11.98;;;8.10;99.90;;;;;;4998689;28;20085;-80
2023/12/24 01:54:09;;;;;;;24.10;12.05;;;8.10;99.90;;;;;;4981510;28;20420;-80
2023/12/24 01:56:41;;;;;;;28.23;11.25;;;8.10;99.90;;;;;;4980339;28;20527;-80
2023/12/24 01:59:12;;;;;;;21.75;10.75;;;8.10;99.90;;;;;;5004041;28;20626;-80
2023/12/24 02:01:39;;;;;;;31.98;11.30;;;8.00;99.90;;;;;;4997162;28;20073;-81
2023/12/24 02:04:06;;;;;;;28.85;10.82;;;8.00;99.90;;;;;;4966941;28;20122;-81
2023/12/24 02:06:33;;;;;;;31.30;11.43;;;8.00;99.90;;;;;;5000681;28;20033;-81
2023/12/24 02:09:00;;;;;;;23.48;11.25;;;8.00;99.90;;;;;;5007353;28;20382;-80
2023/12/24 02:11:27;;;;;;;28.88;11.93;;;8.00;99.90;;;;;;5002443;28;20033;-81
2023/12/24 02:13:57;;;;;;;30.88;10.30;;;8.00;99.90;;;;;;4981656;28;20058;-80
2023/12/24 02:16:27;;;;;;;23.10;10.73;;;8.00;99.90;;;;;;4999497;28;20026;-81
2023/12/24 02:18:54;;;;;;;20.85;10.15;;;8.00;99.90;;;;;;4981147;28;20108;-80
2023/12/24 02:21:20;;;;;;;25.50;10.45;;;8.00;99.90;;;;;;4966058;28;20023;-80
2023/12/24 02:23:47;;;;;;;24.08;9.88;;;8.00;99.90;;;;;;4999684;28;20065;-81
2023/12/24 02:26:39;;;;;;;42.25;11.57;;;8.00;99.90;;;;;;5000174;28;20022;-81
2023/12/24 02:29:19;;;;;;;34.17;11.52;;;8.10;99.90;;;;;;4984748;28;20037;-80
2023/12/24 02:31:48;;;;;;;38.10;11.40;;;8.30;99.90;;;;;;4996793;28;20480;-81
2023/12/24 02:34:17;;;;;;;36.78;11.48;;;8.60;99.90;;;;;;4974737;28;20033;-81
2023/12/24 02:36:48;;;;;;;28.38;10.85;;;8.90;99.90;;;;;;5019031;28;20560;-80
2023/12/24 02:39:15;;;;;;;36.10;11.30;;;9.10;99.90;;;;;;5009110;28;20051;-81
2023/12/24 02:41:41;;;;;;;34.58;12.13;;;9.20;99.90;;;;;;5000824;28;20042;-81
2023/12/24 02:44:09;;;;;;;52.33;13.07;;;9.40;99.90;;;;;;5018473;28;20053;-81
2023/12/24 02:46:35;;;;;;;33.65;11.63;;;9.40;99.90;;;;;;5001588;28;20037;-81
2023/12/24 02:49:01;;;;;;;36.80;11.13;;;9.40;99.90;;;;;;4988472;28;20031;-81
2023/12/24 02:51:28;;;;;;;34.65;10.75;;;9.30;99.90;;;;;;4979905;28;20034;-81
2023/12/24 02:53:55;;;;;;;28.63;11.02;;;9.30;99.90;;;;;;4998235;28;20160;-81
2023/12/24 02:56:21;;;;;;;31.20;11.70;;;9.40;99.90;;;;;;4981370;28;20034;-81
2023/12/24 02:58:48;;;;;;;27.60;11.63;;;9.30;99.90;;;;;;5004436;28;20044;-81
2023/12/24 03:01:14;;;;;;;33.15;11.75;;;9.20;99.90;;;;;;4983674;28;20075;-81
2023/12/24 03:03:41;;;;;;;27.10;11.38;;;9.10;99.90;;;;;;4996407;28;20029;-81
2023/12/24 03:06:07;;;;;;;46.47;12.23;;;9.00;99.90;;;;;;5013215;28;20096;-81
2023/12/24 03:08:34;;;;;;;29.75;11.45;;;9.10;99.90;;;;;;4979983;28;20479;-80
2023/12/24 03:11:02;;;;;;;30.63;11.15;;;8.80;99.90;;;;;;4977737;28;20038;-80
2023/12/24 03:13:32;;;;;;;33.63;11.25;;;8.90;99.90;;;;;;4995232;28;20029;-81
2023/12/24 03:15:58;;;;;;;28.58;12.07;;;8.80;99.90;;;;;;4987005;28;20052;-80
2023/12/24 03:18:25;;;;;;;25.58;10.98;;;8.80;99.90;;;;;;4986928;28;20022;-81
2023/12/24 03:20:52;;;;;;;26.90;10.63;;;8.70;99.90;;;;;;4984705;28;20091;-81
2023/12/24 03:23:19;;;;;;;33.10;10.93;;;8.60;99.90;;;;;;4977244;28;20026;-80
2023/12/24 03:25:45;;;;;;;26.05;11.70;;;8.60;99.90;;;;;;4978273;28;20031;-81
2023/12/24 03:28:12;;;;;;;23.60;10.90;;;8.50;99.90;;;;;;4980178;28;20038;-80
2023/12/24 03:30:38;;;;;;;25.80;10.50;;;8.40;99.90;;;;;;4995202;28;20488;-80
2023/12/24 03:33:04;;;;;;;31.08;12.13;;;8.30;99.90;;;;;;4997162;28;20037;-80
2023/12/24 03:35:31;;;;;;;25.20;10.93;;;8.30;99.90;;;;;;4964559;28;20031;-80
2023/12/24 03:37:57;;;;;;;25.58;10.88;;;8.30;99.90;;;;;;5013727;28;20041;-80
2023/12/24 03:40:24;;;;;;;28.15;10.73;;;8.30;99.90;;;;;;5016185;28;20017;-80
2023/12/24 03:42:50;;;;;;;38.42;11.60;;;8.20;99.90;;;;;;5023253;28;20030;-80
2023/12/24 03:45:16;;;;;;;28.10;11.27;;;8.20;99.90;;;;;;4996848;28;20032;-80
2023/12/24 03:47:43;;;;;;;28.63;11.27;;;8.10;99.90;;;;;;4996801;28;20030;-80
2023/12/24 03:50:09;;;;;;;26.98;11.52;;;8.10;99.90;;;;;;5013730;28;20029;-80
2023/12/24 03:52:36;;;;;;;24.25;10.55;;;8.00;99.90;;;;;;5007573;28;20083;-80
2023/12/24 03:55:02;;;;;;;26.08;10.23;;;7.90;99.90;;;;;;4981021;28;20052;-80
2023/12/24 03:57:28;;;;;;;33.53;12.27;;;7.80;99.90;;;;;;4989774;28;20187;-80
2023/12/24 03:59:55;;;;;;;22.30;11.55;;;8.00;99.90;;;;;;5006351;28;20025;-81
2023/12/24 04:02:24;;;;;;;30.40;12.10;;;8.20;99.90;;;;;;4997300;28;20136;-80
2023/12/24 04:04:51;;;;;;;22.52;11.13;;;8.20;99.90;;;;;;4976795;28;20050;-80
2023/12/24 04:07:17;;;;;;;29.90;11.57;;;8.20;99.90;;;;;;4994055;28;20030;-80
2023/12/24 04:09:44;;;;;;;28.08;11.98;;;8.20;99.90;;;;;;4979198;28;20031;-80
2023/12/24 04:12:11;;;;;;;37.45;14.15;;;8.30;99.90;;;;;;4981691;28;20510;-81
2023/12/24 04:14:41;;;;;;;42.92;14.00;;;8.30;99.90;;;;;;4993035;28;20038;-81
2023/12/24 04:17:07;;;;;;;32.50;14.02;;;8.40;99.90;;;;;;4992832;28;20109;-81
2023/12/24 04:19:34;;;;;;;21.95;12.55;;;8.40;99.90;;;;;;4999862;28;20121;-80
2023/12/24 04:22:01;;;;;;;28.20;13.55;;;8.40;99.90;;;;;;4974290;28;20038;-81
2023/12/24 04:24:27;;;;;;;29.63;13.38;;;8.40;99.90;;;;;;5006566;28;20559;-81
2023/12/24 04:26:53;;;;;;;31.65;12.15;;;8.40;99.90;;;;;;5007630;28;20190;-81
2023/12/24 04:29:20;;;;;;;28.25;11.77;;;8.30;99.90;;;;;;5001396;28;20360;-80
2023/12/24 04:31:47;;;;;;;26.30;11.20;;;8.20;99.90;;;;;;4974049;28;20027;-81
2023/12/24 04:34:16;;;;;;;27.00;11.20;;;8.20;99.90;;;;;;4992526;28;20022;-81
2023/12/24 04:36:42;;;;;;;35.78;10.90;;;8.30;99.90;;;;;;4976378;28;20038;-80
2023/12/24 04:39:09;;;;;;;17.77;10.48;;;8.30;99.90;;;;;;4983694;28;20027;-81
2023/12/24 04:41:38;;;;;;;23.13;10.32;;;8.20;99.90;;;;;;4992028;28;20026;-80
2023/12/24 04:44:04;;;;;;;25.67;10.95;;;8.20;99.90;;;;;;4976812;28;20030;-80
2023/12/24 04:46:31;;;;;;;32.97;12.07;;;8.20;99.90;;;;;;4973125;28;20031;-81
2023/12/24 04:48:57;;;;;;;27.63;11.45;;;8.10;99.90;;;;;;4982531;28;20033;-80
2023/12/24 04:51:24;;;;;;;26.13;11.93;;;8.10;99.90;;;;;;4991666;28;20077;-79
2023/12/24 04:53:50;;;;;;;20.50;11.07;;;8.10;99.90;;;;;;4972271;28;20581;-80
2023/12/24 04:56:21;;;;;;;19.10;10.45;;;8.10;99.90;;;;;;4994085;28;20117;-81
2023/12/24 04:58:47;;;;;;;26.60;11.55;;;8.10;99.90;;;;;;4996380;28;20091;-81
2023/12/24 05:01:17;;;;;;;25.20;11.50;;;8.10;99.90;;;;;;5003986;28;20030;-80
2023/12/24 05:03:47;;;;;;;22.80;10.55;;;8.00;99.90;;;;;;4978647;28;20039;-80
2023/12/24 05:06:13;;;;;;;27.13;11.27;;;7.90;99.90;;;;;;4991752;28;20108;-80
2023/12/24 05:08:40;;;;;;;25.13;11.52;;;7.90;99.90;;;;;;4979411;28;20029;-80
2023/12/24 05:11:09;;;;;;;32.83;12.18;;;7.90;99.90;;;;;;4975414;28;20700;-81
2023/12/24 05:13:36;;;;;;;24.20;10.35;;;8.00;99.90;;;;;;4977774;28;20030;-80
2023/12/24 05:16:03;;;;;;;22.92;10.30;;;7.90;99.90;;;;;;5005627;28;20030;-80
2023/12/24 05:18:30;;;;;;;30.05;10.45;;;7.90;99.90;;;;;;4975917;28;20117;-81
2023/12/24 05:20:56;;;;;;;23.48;10.07;;;7.90;99.90;;;;;;4980119;28;20042;-80
2023/12/24 05:23:25;;;;;;;25.23;10.02;;;7.90;99.90;;;;;;4991554;28;20026;-80
2023/12/24 05:25:52;;;;;;;29.65;9.65;;;7.90;99.90;;;;;;4991859;28;20030;-80
2023/12/24 05:28:19;;;;;;;17.00;9.07;;;8.00;99.90;;;;;;4992403;28;20114;-80
2023/12/24 05:30:45;;;;;;;25.85;9.30;;;7.90;99.90;;;;;;4996605;28;20361;-81
2023/12/24 05:33:11;;;;;;;21.23;8.75;;;7.90;99.90;;;;;;4992816;28;20384;-81
2023/12/24 05:35:41;;;;;;;28.83;9.48;;;7.80;99.90;;;;;;4992938;28;20033;-81
2023/12/24 05:38:07;;;;;;;35.55;10.25;;;7.80;99.90;;;;;;4992560;28;20041;-81
2023/12/24 05:40:34;;;;;;;27.05;9.35;;;7.90;99.90;;;;;;4984411;28;20444;-81
2023/12/24 05:43:00;;;;;;;26.58;10.15;;;7.90;99.90;;;;;;4986720;28;20030;-81
2023/12/24 05:45:27;;;;;;;21.88;9.35;;;7.80;99.90;;;;;;4992839;28;20458;-81
2023/12/24 05:47:53;;;;;;;18.92;9.10;;;7.70;99.90;;;;;;4992255;28;20037;-81
2023/12/24 05:50:19;;;;;;;25.50;9.75;;;7.70;99.90;;;;;;4980245;28;20029;-81
2023/12/24 05:52:46;;;;;;;23.70;10.32;;;7.60;99.90;;;;;;4991359;28;20030;-81
2023/12/24 05:55:12;;;;;;;30.00;10.00;;;7.70;99.90;;;;;;4983252;28;20027;-81
2023/12/24 05:57:39;;;;;;;11.95;9.30;;;7.60;99.90;;;;;;4972681;28;20500;-80
2023/12/24 06:00:10;;;;;;;29.02;10.02;;;7.50;99.90;;;;;;4984582;28;20027;-81
2023/12/24 06:02:41;;;;;;;19.40;9.57;;;7.60;99.90;;;;;;4959131;28;20039;-80
2023/12/24 06:05:07;;;;;;;29.98;10.32;;;7.50;99.90;;;;;;4992575;28;20053;-81
2023/12/24 06:07:34;;;;;;;17.17;8.90;;;7.40;99.90;;;;;;5012063;28;20022;-81
2023/12/24 06:10:00;;;;;;;23.88;9.93;;;7.50;99.90;;;;;;5005060;28;20034;-80
2023/12/24 06:12:27;;;;;;;23.55;10.00;;;7.40;99.90;;;;;;5029086;28;20022;-81
2023/12/24 06:14:57;;;;;;;23.80;9.73;;;7.50;99.90;;;;;;5012890;28;20030;-82
2023/12/24 06:17:23;;;;;;;24.95;9.63;;;7.50;99.90;;;;;;5012794;28;20030;-81
2023/12/24 06:19:50;;;;;;;26.55;9.27;;;7.50;99.90;;;;;;5002035;28;20038;-79
2023/12/24 06:22:16;;;;;;;28.52;9.05;;;7.50;99.90;;;;;;5014893;28;20021;-80
2023/12/24 06:24:43;;;;;;;25.25;9.98;;;7.40;99.90;;;;;;5011182;28;20506;-80
2023/12/24 06:27:10;;;;;;;25.02;9.68;;;7.30;99.90;;;;;;5016512;28;20391;-80
2023/12/24 06:29:37;;;;;;;22.02;9.50;;;7.50;99.90;;;;;;5026146;28;20491;-80
2023/12/24 06:32:04;;;;;;;27.77;10.38;;;7.60;99.90;;;;;;5018345;28;20029;-80
2023/12/24 06:34:34;;;;;;;24.67;10.10;;;7.70;99.90;;;;;;5036133;28;20032;-80
2023/12/24 06:37:01;;;;;;;24.75;10.13;;;7.80;99.90;;;;;;4999726;28;20038;-80
2023/12/24 06:39:27;;;;;;;19.60;10.27;;;7.90;99.90;;;;;;5006817;28;20109;-80
2023/12/24 06:41:56;;;;;;;20.40;9.70;;;7.90;99.90;;;;;;5018293;28;20041;-80
2023/12/24 06:44:23;;;;;;;17.33;9.75;;;7.80;99.90;;;;;;5016683;28;20540;-80
2023/12/24 06:46:49;;;;;;;24.80;9.88;;;7.90;99.90;;;;;;5015271;28;20038;-80
2023/12/24 06:49:15;;;;;;;20.20;9.90;;;8.00;99.90;;;;;;4997844;28;20043;-80
2023/12/24 06:51:42;;;;;;;23.33;9.23;;;8.20;99.90;;;;;;4983112;28;20027;-80
2023/12/24 06:54:08;;;;;;;26.30;9.50;;;8.40;99.90;;;;;;4978918;28;20029;-80
2023/12/24 06:56:35;;;;;;;18.83;8.73;;;8.70;99.90;;;;;;4983224;28;20525;-80
2023/12/24 06:59:02;;;;;;;19.55;8.65;;;9.00;99.90;;;;;;4985924;28;20026;-80
2023/12/24 07:01:28;;;;;;;23.35;8.13;;;9.30;99.90;;;;;;4997231;28;20046;-79
2023/12/24 07:03:55;;;;;;;22.60;7.57;;;9.60;99.90;;;;;;5014974;28;20028;-80
2023/12/24 07:06:21;;;;;;;27.10;9.38;;;9.70;99.90;;;;;;4971765;28;20092;-82
2023/12/24 07:08:47;;;;;;;17.58;7.35;;;9.80;99.90;;;;;;4977252;28;20104;-80
2023/12/24 07:11:17;;;;;;;17.95;7.68;;;9.90;99.90;;;;;;4992804;28;20034;-79
2023/12/24 07:13:43;;;;;;;22.65;8.82;;;10.20;99.90;;;;;;4973596;28;20035;-81
2023/12/24 07:16:10;;;;;;;14.48;10.00;;;10.30;99.90;;;;;;4973279;28;20505;-81
2023/12/24 07:18:36;;;;;;;13.85;10.10;;;10.10;99.90;;;;;;4956150;28;20377;-83
2023/12/24 07:21:03;;;;;;;18.70;10.80;;;10.30;99.90;;;;;;4979218;28;20379;-82
2023/12/24 07:23:29;;;;;;;19.65;11.27;;;10.70;99.90;;;;;;4974591;28;20057;-81
2023/12/24 07:26:09;;;;;;;20.05;10.77;;;11.10;99.90;;;;;;4974457;28;20122;-81
2023/12/24 07:28:46;;;;;;;21.10;10.80;;;11.40;99.90;;;;;;4959115;28;20102;-81
2023/12/24 07:31:16;;;;;;;18.90;12.25;;;11.70;99.90;;;;;;4994549;28;20388;-80
2023/12/24 07:33:43;;;;;;;21.10;12.23;;;12.10;99.90;;;;;;5010718;28;20441;-80
2023/12/24 07:36:11;;;;;;;21.25;13.95;;;12.20;99.90;;;;;;4995314;28;20041;-81
2023/12/24 07:38:39;;;;;;;24.67;15.23;;;12.30;99.90;;;;;;4993474;28;20027;-81
2023/12/24 07:41:06;;;;;;;32.97;17.73;;;12.60;99.90;;;;;;4976126;28;20489;-82
2023/12/24 07:43:32;;;;;;;22.70;17.73;;;12.60;99.90;;;;;;4968971;28;20156;-82
2023/12/24 07:45:59;;;;;;;40.58;21.27;;;12.70;99.90;;;;;;4956278;29;20032;-81
2023/12/24 07:48:25;;;;;;;21.60;19.15;;;13.10;99.90;;;;;;4954409;29;20031;-83
2023/12/24 07:50:51;;;;;;;30.58;19.50;;;13.50;99.90;;;;;;4991993;28;20113;-80
2023/12/24 07:53:18;;;;;;;31.05;19.90;;;13.70;99.90;;;;;;4993508;28;20030;-80
2023/12/24 07:55:47;;;;;;;32.72;20.20;;;13.90;99.90;;;;;;5010443;28;20031;-82
2023/12/24 07:58:14;;;;;;;30.92;20.40;;;14.10;99.90;;;;;;4996718;28;20046;-80
2023/12/24 08:00:40;;;;;;;37.28;21.40;;;14.10;99.90;;;;;;4977147;28;20027;-80
2023/12/24 08:03:06;;;;;;;25.58;22.02;;;14.10;99.90;;;;;;4974513;28;20400;-81
2023/12/24 08:05:32;;;;;;;42.85;23.50;;;14.20;99.90;;;;;;4987303;28;20467;-81
2023/12/24 08:07:59;;;;;;;30.90;22.83;;;14.20;99.90;;;;;;4993795;28;20161;-80
2023/12/24 08:10:26;;;;;;;29.73;22.08;;;14.20;99.90;;;;;;4994876;28;20034;-81
2023/12/24 08:12:52;;;;;;;32.17;22.42;;;14.30;99.90;;;;;;4977523;28;20030;-81
2023/12/24 08:15:21;;;;;;;28.95;24.25;;;14.30;99.90;;;;;;4993690;28;20100;-80
2023/12/24 08:17:48;;;;;;;31.83;23.73;;;14.20;99.90;;;;;;4977410;28;20053;-80
2023/12/24 08:20:15;;;;;;;43.15;24.40;;;14.20;99.90;;;;;;4977602;28;20050;-82
2023/12/24 08:22:42;;;;;;;30.63;24.42;;;14.00;99.90;;;;;;4960789;28;20035;-81
2023/12/24 08:25:09;;;;;;;33.47;23.77;;;14.20;99.90;;;;;;4944191;28;20035;-82
2023/12/24 08:27:35;;;;;;;45.30;24.58;;;14.10;99.90;;;;;;4957994;28;20033;-82
2023/12/24 08:30:02;;;;;;;42.35;23.83;;;14.20;99.90;;;;;;4968915;28;20093;-82
2023/12/24 08:32:31;;;;;;;41.88;23.50;;;14.30;99.90;;;;;;4993585;28;20038;-81
2023/12/24 08:34:58;;;;;;;35.58;23.85;;;14.40;99.90;;;;;;4990358;28;20112;-80
2023/12/24 08:37:24;;;;;;;39.28;23.75;;;14.50;99.90;;;;;;4957575;28;20039;-80
2023/12/24 08:39:50;;;;;;;42.97;25.23;;;14.70;99.90;;;;;;4983109;28;20527;-80
2023/12/24 08:42:16;;;;;;;42.83;22.75;;;14.80;99.90;;;;;;4976923;28;20026;-80
2023/12/24 08:44:43;;;;;;;33.45;22.33;;;14.90;99.90;;;;;;4968688;28;20098;-81
2023/12/24 08:47:10;;;;;;;46.00;21.70;;;15.00;99.90;;;;;;4974521;28;20031;-83
2023/12/24 08:49:36;;;;;;;40.70;21.83;;;15.20;99.90;;;;;;4964677;28;20018;-80
2023/12/24 08:52:03;;;;;;;35.60;21.20;;;15.30;99.90;;;;;;4992875;28;20093;-80
2023/12/24 08:54:29;;;;;;;33.10;21.65;;;15.40;99.90;;;;;;4976722;28;20022;-80
2023/12/24 08:56:55;;;;;;;39.65;20.20;;;15.50;99.90;;;;;;4973520;28;20053;-80
2023/12/24 08:59:21;;;;;;;40.33;19.92;;;15.50;99.90;;;;;;4978575;28;20015;-79
2023/12/24 09:01:49;;;;;;;37.88;20.30;;;15.50;99.90;;;;;;4955278;28;20042;-80
2023/12/24 09:04:18;;;;;;;28.38;19.55;;;15.60;99.90;;;;;;4975516;28;20065;-82
2023/12/24 09:06:45;;;;;;;27.88;19.05;;;15.60;99.90;;;;;;4971406;28;20496;-80
2023/12/24 09:09:12;;;;;;;29.45;19.70;;;15.70;99.90;;;;;;4984112;28;20034;-80
2023/12/24 09:11:39;;;;;;;37.00;19.88;;;15.80;99.90;;;;;;4982673;28;20061;-80
2023/12/24 09:14:06;;;;;;;32.53;20.13;;;15.90;99.90;;;;;;5013458;28;20132;-80
2023/12/24 09:16:32;;;;;;;38.42;21.15;;;16.00;99.90;;;;;;4979558;28;20044;-80
2023/12/24 09:18:58;;;;;;;33.30;20.73;;;16.00;99.90;;;;;;5015146;28;20033;-80
2023/12/24 09:21:25;;;;;;;35.20;21.10;;;16.10;99.90;;;;;;5019366;28;20507;-82
2023/12/24 09:23:51;;;;;;;33.80;21.75;;;16.20;99.90;;;;;;4976795;28;20033;-83
2023/12/24 09:26:18;;;;;;;35.80;21.30;;;16.10;99.90;;;;;;4976844;28;20166;-81
2023/12/24 09:28:44;;;;;;;41.00;21.38;;;16.20;99.90;;;;;;4976404;28;20037;-85
2023/12/24 09:31:11;;;;;;;32.08;21.50;;;16.40;99.90;;;;;;4976402;28;20030;-81
2023/12/24 09:33:37;;;;;;;31.40;20.98;;;16.50;99.90;;;;;;4976321;28;20037;-82
2023/12/24 09:36:07;;;;;;;30.27;21.55;;;16.50;99.90;;;;;;4994066;28;20030;-83
2023/12/24 09:38:35;;;;;;;30.67;21.15;;;16.70;99.90;;;;;;4976231;28;20023;-81
2023/12/24 09:41:01;;;;;;;25.40;20.50;;;16.70;99.90;;;;;;5030103;28;20030;-82
2023/12/24 09:43:33;;;;;;;31.55;22.27;;;16.60;99.90;;;;;;5015692;28;20025;-83
2023/12/24 09:45:59;;;;;;;36.42;21.45;;;16.60;99.90;;;;;;4986090;28;20065;-80
2023/12/24 09:48:28;;;;;;;26.50;20.85;;;16.70;99.90;;;;;;4993702;28;20031;-83
2023/12/24 09:50:55;;;;;;;24.90;20.88;;;16.70;99.90;;;;;;5027945;28;20022;-83
2023/12/24 09:53:24;;;;;;;29.25;21.10;;;16.70;99.90;;;;;;5032858;28;20022;-84
2023/12/24 09:55:51;;;;;;;27.15;21.33;;;16.70;99.90;;;;;;4985147;28;20030;-83
2023/12/24 09:58:17;;;;;;;35.42;21.55;;;16.70;99.90;;;;;;4995453;28;20026;-81
2023/12/24 10:00:44;;;;;;;22.85;20.45;;;16.70;99.90;;;;;;4998559;28;20033;-82
2023/12/24 10:03:10;;;;;;;24.17;20.25;;;16.70;99.90;;;;;;5002636;28;20112;-81
2023/12/24 10:05:56;;;;;;;25.85;20.75;;;16.70;99.90;;;;;;4963967;28;20122;-80
2023/12/24 10:08:23;;;;;;;32.50;20.50;;;16.70;99.90;;;;;;4957381;29;20100;-82
2023/12/24 10:10:49;;;;;;;24.50;19.90;;;16.80;99.90;;;;;;4988820;28;20023;-82
2023/12/24 10:13:25;;;;;;;24.63;20.70;;;16.90;99.90;;;;;;4995874;28;20142;-81
2023/12/24 10:16:05;;;;;;;25.70;20.08;;;16.90;99.90;;;;;;4982004;28;20493;-82
2023/12/24 10:18:32;;;;;;;21.35;19.38;;;17.00;99.90;;;;;;4976287;28;20038;-82
2023/12/24 10:21:06;;;;;;;23.92;20.20;;;17.00;99.90;;;;;;4976910;28;20026;-82
2023/12/24 10:23:33;;;;;;;;;;;17.00;99.90;;;;;;4981921;28;20054;-81
2023/12/24 10:26:08;;;;;;;24.02;18.58;;;17.00;99.90;;;;;;4955645;28;19940;-81
2023/12/24 10:28:48;;;;;;;23.42;19.02;;;17.00;99.90;;;;;;4959979;29;20030;-82
2023/12/24 10:31:15;;;;;;;23.15;19.13;;;16.90;99.90;;;;;;4997271;28;20037;-81
2023/12/24 10:33:42;;;;;;;23.83;18.73;;;16.90;99.90;;;;;;4997351;28;20077;-81
2023/12/24 10:36:09;;;;;;;24.95;19.42;;;16.90;99.90;;;;;;4953013;28;20058;-81
2023/12/24 10:38:37;;;;;;;25.45;19.23;;;16.90;99.90;;;;;;4961024;28;20046;-81
2023/12/24 10:41:07;;;;;;;25.50;19.33;;;17.00;99.90;;;;;;4993628;28;20085;-81
2023/12/24 10:43:35;;;;;;;25.80;19.25;;;17.00;99.90;;;;;;4974570;28;20113;-81
2023/12/24 10:46:03;;;;;;;23.75;19.83;;;16.90;99.90;;;;;;4958434;28;20027;-81
2023/12/24 10:48:30;;;;;;;24.63;20.08;;;17.00;99.90;;;;;;4942719;29;20042;-81
2023/12/24 10:50:57;;;;;;;27.05;20.13;;;17.10;99.90;;;;;;4994175;28;20038;-81
2023/12/24 10:53:27;;;;;;;20.90;18.75;;;17.10;99.90;;;;;;4979195;28;20141;-82
2023/12/24 10:56:10;;;;;;;20.77;18.83;;;17.00;99.90;;;;;;4942226;29;20039;-82
2023/12/24 10:59:21;;;;;;;25.70;19.15;;;17.00;99.90;;;;;;4942507;29;20107;-83
2023/12/24 11:01:51;;;;;;;26.67;18.60;;;17.00;99.90;;;;;;4936758;29;20043;-82
2023/12/24 11:04:44;;;;;;;20.88;18.45;;;17.00;99.90;;;;;;4955780;28;20591;-82
2023/12/24 11:07:46;;;;;;;25.20;18.63;;;17.10;99.90;;;;;;4996812;28;20124;-83
2023/12/24 11:10:40;;;;;;;23.40;19.42;;;17.20;99.90;;;;;;4992621;28;20037;-83
2023/12/24 11:13:26;;;;;;;22.27;20.10;;;17.30;99.90;;;;;;5002904;28;20068;-83
2023/12/24 11:15:53;;;;;;;24.83;19.58;;;17.20;99.90;;;;;;5002917;28;20045;-83
2023/12/24 11:18:40;;;;;;;23.05;20.58;;;17.20;99.90;;;;;;4999468;28;20390;-83
2023/12/24 11:21:07;;;;;;;22.77;20.48;;;17.20;99.90;;;;;;4988458;28;20037;-83
2023/12/24 11:23:40;;;;;;;22.02;19.75;;;17.30;99.90;;;;;;4979458;28;20113;-82
2023/12/24 11:49:06;;;;;;;31.45;23.70;;;17.30;99.90;;;;;;5021676;23;20085;-89
2023/12/24 11:51:33;;;;;;;27.45;20.88;;;17.40;99.90;;;;;;4981615;28;20030;-88
2023/12/24 11:54:00;;;;;;;26.48;20.30;;;17.50;99.90;;;;;;4978908;28;20022;-91
2023/12/24 11:56:29;;;;;;;21.83;19.30;;;17.60;99.90;;;;;;4979094;28;20062;-90
2023/12/24 11:59:00;;;;;;;32.17;20.25;;;17.50;99.90;;;;;;4976969;28;20044;-89
2023/12/24 12:01:32;;;;;;;24.60;20.63;;;17.70;99.90;;;;;;4982164;28;20034;-86
2023/12/24 12:04:03;;;;;;;21.45;19.45;;;17.70;99.90;;;;;;4982293;28;20025;-92
2023/12/24 12:06:32;;;;;;;25.30;19.17;;;17.60;99.90;;;;;;4998852;28;20029;-90
2023/12/24 12:09:01;;;;;;;22.05;19.73;;;17.50;99.90;;;;;;4982343;28;20391;-87
2023/12/24 12:11:27;;;;;;;24.45;19.02;;;17.30;99.90;;;;;;4972248;28;20376;-91
2023/12/24 12:13:55;;;;;;;23.40;20.90;;;17.30;99.90;;;;;;4962822;28;20095;-84
2023/12/24 12:16:21;;;;;;;39.53;27.80;;;17.40;99.90;;;;;;4962306;28;20088;-89
2023/12/24 12:18:51;;;;;;;46.45;30.25;;;17.40;99.90;;;;;;4962336;28;20100;-89
2023/12/24 12:21:18;;;;;;;59.70;34.20;;;17.40;99.90;;;;;;4963087;28;20034;-90
2023/12/24 12:23:44;;;;;;;34.80;23.10;;;17.50;99.90;;;;;;4961838;28;20030;-90
2023/12/24 12:26:10;;;;;;;22.63;20.20;;;17.50;99.90;;;;;;4962289;28;20026;-89
2023/12/24 12:28:37;;;;;;;22.20;20.02;;;17.50;99.90;;;;;;4958617;28;20114;-87
2023/12/24 12:31:04;;;;;;;22.45;20.27;;;17.50;99.90;;;;;;4958757;28;20026;-88
2023/12/24 12:33:30;;;;;;;22.25;20.15;;;17.50;99.90;;;;;;4966320;28;20498;-89
2023/12/24 12:35:56;;;;;;;24.77;21.55;;;17.50;99.90;;;;;;4961980;28;20519;-87
2023/12/24 12:38:23;;;;;;;22.73;20.65;;;17.40;99.90;;;;;;4964357;28;20554;-86
2023/12/24 12:40:51;;;;;;;26.30;20.67;;;17.50;99.90;;;;;;4974477;28;20113;-88
2023/12/24 12:43:18;;;;;;;29.00;21.30;;;17.50;99.90;;;;;;4973724;28;20033;-87
2023/12/24 12:45:44;;;;;;;23.40;21.02;;;17.50;99.90;;;;;;4958640;28;20034;-87
2023/12/24 12:48:11;;;;;;;23.05;20.73;;;17.50;99.90;;;;;;4962444;28;20500;-89
2023/12/24 12:50:37;;;;;;;22.33;20.13;;;17.60;99.90;;;;;;4981337;28;20026;-91
2023/12/24 12:53:05;;;;;;;23.88;21.00;;;17.50;99.90;;;;;;4980937;28;20030;-90
2023/12/24 12:55:31;;;;;;;23.30;21.00;;;17.60;99.90;;;;;;4981235;28;20028;-93
2023/12/24 12:57:58;;;;;;;25.58;20.73;;;17.50;99.90;;;;;;4981437;28;20034;-91
2023/12/24 13:00:25;;;;;;;27.08;20.55;;;17.60;99.90;;;;;;4982387;28;20434;-92